createdAt,value
2022-08-20T00:00:12.179Z,22.23
2022-08-20T00:01:11.971Z,22.18
2022-08-20T00:02:12.443Z,22.16
2022-08-20T00:03:15.078Z,22.12
2022-08-20T00:04:12.054Z,22.09
2022-08-20T00:05:12.043Z,22.06
2022-08-20T00:06:12.101Z,22.03
2022-08-20T00:07:12.336Z,22.01
2022-08-20T00:08:12.129Z,21.99
2022-08-20T00:09:12.068Z,21.98
2022-08-20T00:10:12.399Z,21.98
2022-08-20T00:11:12.180Z,22.01
2022-08-20T00:12:12.342Z,22.05
2022-08-20T00:13:12.987Z,22.08
2022-08-20T00:14:15.107Z,22.08
2022-08-20T00:15:12.142Z,22.08
2022-08-20T00:16:11.954Z,22.05
2022-08-20T00:17:12.435Z,22.02
2022-08-20T00:18:12.376Z,22.16
2022-08-20T00:19:12.154Z,22.15
2022-08-20T00:20:12.098Z,22.12
2022-08-20T00:21:12.107Z,22.1
2022-08-20T00:22:12.403Z,22.09
2022-08-20T00:23:12.141Z,22.12
2022-08-20T00:24:11.993Z,22.11
2022-08-20T00:25:12.334Z,22.19
2022-08-20T00:26:12.082Z,22.09
2022-08-20T00:27:12.402Z,22.05
2022-08-20T00:28:12.063Z,22.18
2022-08-20T00:29:12.088Z,22.1
2022-08-20T00:30:15.047Z,22.1
2022-08-20T00:31:12.044Z,22.13
2022-08-20T00:32:12.407Z,22.12
2022-08-20T00:33:12.097Z,22.12
2022-08-20T00:34:12.077Z,22.17
2022-08-20T00:35:13.064Z,22.19
2022-08-20T00:36:15.068Z,22.2
2022-08-20T00:37:12.184Z,22.18
2022-08-20T00:38:12.182Z,22.16
2022-08-20T00:39:12.180Z,22.14
2022-08-20T00:40:22.928Z,22.13
2022-08-20T00:41:12.181Z,22.14
2022-08-20T00:42:12.329Z,22.14
2022-08-20T00:43:12.099Z,22.12
2022-08-20T00:44:12.073Z,22.11
2022-08-20T00:45:12.083Z,22.09
2022-08-20T00:46:12.175Z,22.06
2022-08-20T00:47:18.006Z,22.05
2022-08-20T00:48:12.156Z,22.03
2022-08-20T00:49:12.185Z,22.02
2022-08-20T00:50:12.156Z,22.02
2022-08-20T00:51:12.155Z,22.03
2022-08-20T00:52:12.398Z,22.07
2022-08-20T00:53:12.071Z,22.1
2022-08-20T00:54:12.098Z,22.12
2022-08-20T00:55:12.333Z,22.12
2022-08-20T00:56:12.043Z,22.15
2022-08-20T00:57:12.402Z,22.17
2022-08-20T00:58:15.023Z,22.21
2022-08-20T00:59:12.134Z,22.27
2022-08-20T01:00:11.998Z,22.36
2022-08-20T01:01:12.101Z,22.39
2022-08-20T01:02:12.394Z,22.37
2022-08-20T01:03:12.146Z,22.34
2022-08-20T01:04:12.052Z,22.31
2022-08-20T01:05:12.058Z,22.3
2022-08-20T01:06:12.091Z,22.29
2022-08-20T01:07:12.329Z,22.27
2022-08-20T01:08:12.181Z,22.25
2022-08-20T01:09:15.038Z,22.23
2022-08-20T01:10:12.330Z,22.23
2022-08-20T01:11:12.171Z,22.25
2022-08-20T01:12:12.328Z,22.27
2022-08-20T01:13:12.166Z,22.27
2022-08-20T01:14:12.182Z,22.26
2022-08-20T01:15:11.992Z,22.26
2022-08-20T01:16:12.105Z,22.25
2022-08-20T01:17:12.800Z,22.26
2022-08-20T01:18:12.053Z,22.28
2022-08-20T01:19:29.685Z,22.29
2022-08-20T01:20:15.084Z,22.28
2022-08-20T01:21:12.145Z,22.28
2022-08-20T01:22:12.402Z,22.28
2022-08-20T01:23:12.178Z,22.29
2022-08-20T01:24:12.105Z,22.3
2022-08-20T01:25:12.479Z,22.3
2022-08-20T01:26:11.955Z,22.31
2022-08-20T01:27:12.405Z,22.32
2022-08-20T01:28:12.153Z,22.33
2022-08-20T01:29:12.111Z,22.34
2022-08-20T01:30:12.154Z,22.36
2022-08-20T01:31:15.067Z,22.37
2022-08-20T01:32:12.408Z,22.36
2022-08-20T01:33:12.059Z,22.36
2022-08-20T01:34:12.062Z,22.36
2022-08-20T01:35:11.979Z,22.35
2022-08-20T01:36:12.811Z,22.34
2022-08-20T01:37:12.330Z,22.33
2022-08-20T01:38:12.107Z,22.34
2022-08-20T01:39:12.064Z,22.34
2022-08-20T01:40:12.467Z,22.38
2022-08-20T01:41:12.167Z,22.47
2022-08-20T01:42:16.413Z,22.38
2022-08-20T01:43:12.126Z,22.34
2022-08-20T01:44:16.908Z,22.35
2022-08-20T01:45:12.082Z,22.32
2022-08-20T01:46:12.055Z,22.33
2022-08-20T01:47:12.404Z,22.43
2022-08-20T01:48:11.991Z,22.45
2022-08-20T01:49:13.674Z,22.36
2022-08-20T01:50:12.103Z,22.33
2022-08-20T01:51:12.159Z,22.31
2022-08-20T01:52:12.395Z,22.3
2022-08-20T01:53:12.114Z,22.26
2022-08-20T01:54:12.097Z,22.23
2022-08-20T01:55:12.438Z,22.2
2022-08-20T01:56:12.076Z,22.18
2022-08-20T01:57:12.406Z,22.16
2022-08-20T01:58:15.068Z,22.14
2022-08-20T01:59:12.089Z,22.24
2022-08-20T02:00:14.626Z,22.23
2022-08-20T02:01:12.161Z,22.22
2022-08-20T02:02:12.395Z,22.2
2022-08-20T02:03:12.129Z,22.08
2022-08-20T02:04:15.163Z,22.07
2022-08-20T02:05:12.063Z,22.06
2022-08-20T02:06:11.979Z,22.05
2022-08-20T02:07:12.410Z,22.07
2022-08-20T02:08:12.180Z,22.07
2022-08-20T02:09:16.246Z,22.07
2022-08-20T02:10:12.339Z,22.08
2022-08-20T02:11:12.049Z,22.09
2022-08-20T02:12:12.118Z,22.1
2022-08-20T02:13:12.125Z,22.13
2022-08-20T02:14:12.043Z,22.12
2022-08-20T02:15:11.970Z,22.11
2022-08-20T02:16:12.095Z,22.14
2022-08-20T02:17:12.396Z,22.13
2022-08-20T02:18:12.170Z,22.12
2022-08-20T02:19:12.034Z,22.12
2022-08-20T02:20:15.076Z,22.11
2022-08-20T02:21:12.169Z,22.1
2022-08-20T02:22:12.331Z,22.11
2022-08-20T02:23:12.101Z,22.13
2022-08-20T02:24:12.045Z,22.15
2022-08-20T02:25:12.640Z,22.14
2022-08-20T02:26:12.091Z,22.15
2022-08-20T02:27:12.404Z,22.15
2022-08-20T02:28:12.134Z,22.16
2022-08-20T02:29:11.976Z,22.16
2022-08-20T02:30:12.157Z,22.18
2022-08-20T02:31:15.068Z,22.2
2022-08-20T02:32:24.211Z,22.23
2022-08-20T02:33:12.092Z,22.24
2022-08-20T02:34:21.619Z,22.25
2022-08-20T02:35:12.150Z,22.26
2022-08-20T02:36:12.170Z,22.27
2022-08-20T02:37:12.321Z,22.27
2022-08-20T02:38:12.100Z,22.3
2022-08-20T02:39:12.177Z,22.32
2022-08-20T02:40:12.207Z,22.33
2022-08-20T02:41:12.526Z,22.33
2022-08-20T02:42:18.002Z,22.32
2022-08-20T02:43:12.032Z,22.34
2022-08-20T02:44:12.059Z,22.34
2022-08-20T02:45:15.902Z,22.35
2022-08-20T02:46:12.161Z,22.34
2022-08-20T02:47:12.325Z,22.36
2022-08-20T02:48:12.084Z,22.35
2022-08-20T02:49:12.072Z,22.33
2022-08-20T02:50:12.168Z,22.34
2022-08-20T02:51:12.069Z,22.33
2022-08-20T02:52:12.402Z,22.33
2022-08-20T02:53:15.050Z,22.32
2022-08-20T02:54:12.128Z,22.38
2022-08-20T02:55:11.968Z,22.37
2022-08-20T02:56:12.407Z,22.29
2022-08-20T02:57:12.332Z,22.28
2022-08-20T02:58:12.150Z,22.26
2022-08-20T02:59:19.048Z,22.24
2022-08-20T03:00:15.252Z,22.22
2022-08-20T03:01:12.228Z,22.32
2022-08-20T03:02:12.330Z,22.36
2022-08-20T03:03:12.160Z,22.38
2022-08-20T03:04:15.197Z,22.38
2022-08-20T03:05:12.183Z,22.25
2022-08-20T03:06:12.103Z,22.23
2022-08-20T03:07:12.323Z,22.21
2022-08-20T03:08:12.060Z,22.22
2022-08-20T03:09:12.139Z,22.23
2022-08-20T03:10:14.982Z,22.2
2022-08-20T03:11:12.328Z,22.19
2022-08-20T03:12:12.396Z,22.3
2022-08-20T03:13:12.168Z,22.34
2022-08-20T03:14:12.147Z,22.25
2022-08-20T03:15:17.645Z,22.23
2022-08-20T03:16:12.116Z,22.24
2022-08-20T03:17:12.057Z,22.25
2022-08-20T03:18:12.174Z,22.22
2022-08-20T03:19:12.149Z,22.21
2022-08-20T03:20:12.133Z,22.21
2022-08-20T03:21:11.975Z,22.18
2022-08-20T03:22:12.400Z,22.17
2022-08-20T03:23:12.175Z,22.14
2022-08-20T03:24:12.054Z,22.16
2022-08-20T03:25:12.081Z,22.16
2022-08-20T03:26:18.043Z,22.15
2022-08-20T03:27:12.409Z,22.15
2022-08-20T03:28:12.178Z,22.23
2022-08-20T03:29:12.139Z,22.15
2022-08-20T03:30:12.105Z,22.13
2022-08-20T03:31:12.631Z,22.15
2022-08-20T03:32:12.323Z,22.15
2022-08-20T03:33:12.099Z,22.15
2022-08-20T03:34:12.072Z,22.15
2022-08-20T03:35:12.076Z,22.15
2022-08-20T03:36:12.155Z,22.17
2022-08-20T03:37:18.030Z,22.19
2022-08-20T03:38:12.144Z,22.2
2022-08-20T03:39:12.113Z,22.19
2022-08-20T03:40:12.234Z,22.2
2022-08-20T03:41:12.329Z,22.19
2022-08-20T03:42:12.328Z,22.18
2022-08-20T03:43:11.967Z,22.17
2022-08-20T03:44:12.108Z,22.11
2022-08-20T03:45:12.137Z,22.08
2022-08-20T03:46:23.610Z,22.05
2022-08-20T03:47:12.330Z,22.03
2022-08-20T03:48:15.066Z,22
2022-08-20T03:49:12.186Z,21.98
2022-08-20T03:50:23.241Z,22
2022-08-20T03:51:12.125Z,22.02
2022-08-20T03:52:12.397Z,22.04
2022-08-20T03:53:13.085Z,22.04
2022-08-20T03:54:12.053Z,22.04
2022-08-20T03:55:12.101Z,22.06
2022-08-20T03:56:12.326Z,22.07
2022-08-20T03:57:12.333Z,22.09
2022-08-20T03:58:12.122Z,22.1
2022-08-20T03:59:15.102Z,22.11
2022-08-20T04:00:12.121Z,22.1
2022-08-20T04:01:44.530Z,22.08
2022-08-20T04:02:12.436Z,22.1
2022-08-20T04:03:12.187Z,22.09
2022-08-20T04:04:12.831Z,22.11
2022-08-20T04:05:12.060Z,22.12
2022-08-20T04:06:12.096Z,22.11
2022-08-20T04:07:12.330Z,22.11
2022-08-20T04:08:12.047Z,22.09
2022-08-20T04:09:12.482Z,22.21
2022-08-20T04:10:15.075Z,22.21
2022-08-20T04:11:12.336Z,22.2
2022-08-20T04:12:12.336Z,22.06
2022-08-20T04:13:12.126Z,22.04
2022-08-20T04:14:12.923Z,22.01
2022-08-20T04:15:12.150Z,22
2022-08-20T04:16:14.821Z,22.01
2022-08-20T04:17:12.399Z,22.01
2022-08-20T04:18:12.152Z,22.01
2022-08-20T04:19:12.060Z,22.01
2022-08-20T04:20:12.057Z,22.02
2022-08-20T04:21:15.060Z,22.03
2022-08-20T04:22:12.322Z,22.03
2022-08-20T04:23:11.974Z,22.12
2022-08-20T04:24:27.481Z,22.04
2022-08-20T04:25:12.081Z,22.02
2022-08-20T04:26:12.471Z,22.02
2022-08-20T04:27:12.331Z,22
2022-08-20T04:28:12.494Z,21.98
2022-08-20T04:29:12.155Z,21.98
2022-08-20T04:30:12.075Z,21.97
2022-08-20T04:31:12.068Z,21.97
2022-08-20T04:32:18.036Z,21.97
2022-08-20T04:33:12.170Z,21.96
2022-08-20T04:34:12.108Z,21.95
2022-08-20T04:35:11.985Z,21.96
2022-08-20T04:36:12.062Z,21.96
2022-08-20T04:37:17.014Z,21.95
2022-08-20T04:38:12.080Z,21.98
2022-08-20T04:39:12.096Z,21.98
2022-08-20T04:40:12.154Z,21.99
2022-08-20T04:41:23.162Z,22.01
2022-08-20T04:42:12.318Z,21.99
2022-08-20T04:43:15.001Z,21.98
2022-08-20T04:44:12.178Z,21.97
2022-08-20T04:45:12.052Z,21.95
2022-08-20T04:46:12.103Z,21.95
2022-08-20T04:47:12.329Z,21.94
2022-08-20T04:48:15.209Z,21.93
2022-08-20T04:49:12.104Z,21.91
2022-08-20T04:50:12.066Z,21.9
2022-08-20T04:51:12.173Z,22.03
2022-08-20T04:52:12.335Z,22.05
2022-08-20T04:53:12.129Z,21.99
2022-08-20T04:54:15.042Z,21.98
2022-08-20T04:55:12.048Z,22
2022-08-20T04:56:12.400Z,22.03
2022-08-20T04:57:12.325Z,22.09
2022-08-20T04:58:12.164Z,22.11
2022-08-20T04:59:12.133Z,22.15
2022-08-20T05:00:12.043Z,22.18
2022-08-20T05:01:12.121Z,22.18
2022-08-20T05:02:12.342Z,22.15
2022-08-20T05:03:12.172Z,22.13
2022-08-20T05:04:12.126Z,22.12
2022-08-20T05:05:15.062Z,22.24
2022-08-20T05:06:12.177Z,22.26
2022-08-20T05:07:12.334Z,22.31
2022-08-20T05:08:19.566Z,22.27
2022-08-20T05:09:12.108Z,22.24
2022-08-20T05:10:12.171Z,22.25
2022-08-20T05:11:35.775Z,22.26
2022-08-20T05:12:12.076Z,22.27
2022-08-20T05:13:11.959Z,22.3
2022-08-20T05:14:12.065Z,22.33
2022-08-20T05:15:12.059Z,22.39
2022-08-20T05:16:14.968Z,22.43
2022-08-20T05:17:12.338Z,22.5
2022-08-20T05:18:12.168Z,22.52
2022-08-20T05:19:12.063Z,22.54
2022-08-20T05:20:12.095Z,22.56
2022-08-20T05:21:12.136Z,22.55
2022-08-20T05:22:12.329Z,22.6
2022-08-20T05:23:12.058Z,22.73
2022-08-20T05:24:12.181Z,22.6
2022-08-20T05:25:12.062Z,22.59
2022-08-20T05:26:12.408Z,22.61
2022-08-20T05:27:24.641Z,22.6
2022-08-20T05:28:12.163Z,22.64
2022-08-20T05:29:12.169Z,22.64
2022-08-20T05:30:13.474Z,22.67
2022-08-20T05:31:12.165Z,22.67
2022-08-20T05:32:12.322Z,22.69
2022-08-20T05:33:12.064Z,22.7
2022-08-20T05:34:12.353Z,22.71
2022-08-20T05:35:12.181Z,22.76
2022-08-20T05:36:12.111Z,22.83
2022-08-20T05:37:12.189Z,22.89
2022-08-20T05:38:14.989Z,22.97
2022-08-20T05:39:12.060Z,23.07
2022-08-20T05:40:12.168Z,23.2
2022-08-20T05:41:12.147Z,23.32
2022-08-20T05:42:12.329Z,23.43
2022-08-20T05:43:12.186Z,23.59
2022-08-20T05:44:12.087Z,23.71
2022-08-20T05:45:12.192Z,23.87
2022-08-20T05:46:12.021Z,24.02
2022-08-20T05:47:12.398Z,24.14
2022-08-20T05:48:12.155Z,24.25
2022-08-20T05:49:15.100Z,24.47
2022-08-20T05:50:19.911Z,24.55
2022-08-20T05:51:15.168Z,24.62
2022-08-20T05:52:12.400Z,24.69
2022-08-20T05:53:12.187Z,24.65
2022-08-20T05:54:12.132Z,24.73
2022-08-20T05:55:12.093Z,24.78
2022-08-20T05:56:12.065Z,24.81
2022-08-20T05:57:12.414Z,24.84
2022-08-20T05:58:12.116Z,24.78
2022-08-20T05:59:12.111Z,24.7
2022-08-20T06:00:15.103Z,24.62
2022-08-20T06:01:12.212Z,24.54
2022-08-20T06:02:12.400Z,24.5
2022-08-20T06:03:12.176Z,24.45
2022-08-20T06:04:11.945Z,24.29
2022-08-20T06:05:12.048Z,24.18
2022-08-20T06:06:17.988Z,23.87
2022-08-20T06:07:12.446Z,23.53
2022-08-20T06:08:11.963Z,23.4
2022-08-20T06:09:11.975Z,23.32
2022-08-20T06:10:12.035Z,23.23
2022-08-20T06:11:12.111Z,23.06
2022-08-20T06:12:12.411Z,22.99
2022-08-20T06:13:14.198Z,22.9
2022-08-20T06:14:12.143Z,22.95
2022-08-20T06:15:11.966Z,23.04
2022-08-20T06:16:12.065Z,23.1
2022-08-20T06:17:12.586Z,23.17
2022-08-20T06:18:27.344Z,23.21
2022-08-20T06:19:12.180Z,23.27
2022-08-20T06:20:12.103Z,23.48
2022-08-20T06:21:12.067Z,23.55
2022-08-20T06:22:18.309Z,23.64
2022-08-20T06:23:12.153Z,23.73
2022-08-20T06:24:12.038Z,23.82
2022-08-20T06:25:11.974Z,23.99
2022-08-20T06:26:11.991Z,24.28
2022-08-20T06:27:12.410Z,24.59
2022-08-20T06:28:12.073Z,24.58
2022-08-20T06:29:12.169Z,24.64
2022-08-20T06:30:12.060Z,24.66
2022-08-20T06:31:11.959Z,24.65
2022-08-20T06:32:12.393Z,24.53
2022-08-20T06:33:15.073Z,24.57
2022-08-20T06:34:12.090Z,24.59
2022-08-20T06:35:11.974Z,24.5
2022-08-20T06:36:12.019Z,24.5
2022-08-20T06:37:12.396Z,24.4
2022-08-20T06:38:12.181Z,24.25
2022-08-20T06:39:12.071Z,24.14
2022-08-20T06:40:12.205Z,24.05
2022-08-20T06:41:12.056Z,24.11
2022-08-20T06:42:12.395Z,23.93
2022-08-20T06:43:12.114Z,23.86
2022-08-20T06:44:15.056Z,23.75
2022-08-20T06:45:12.189Z,23.74
2022-08-20T06:46:12.187Z,23.78
2022-08-20T06:47:12.339Z,23.83
2022-08-20T06:48:15.271Z,23.87
2022-08-20T06:49:12.175Z,23.94
2022-08-20T06:50:12.046Z,24.01
2022-08-20T06:51:12.116Z,24.08
2022-08-20T06:52:12.323Z,24.16
2022-08-20T06:53:12.179Z,24.28
2022-08-20T06:54:11.992Z,24.39
2022-08-20T06:55:15.090Z,24.44
2022-08-20T06:56:12.152Z,24.51
2022-08-20T06:57:12.331Z,24.6
2022-08-20T06:58:15.588Z,24.62
2022-08-20T06:59:12.119Z,24.65
2022-08-20T07:00:12.150Z,24.66
2022-08-20T07:01:12.144Z,24.75
2022-08-20T07:02:12.397Z,24.89
2022-08-20T07:03:12.044Z,24.78
2022-08-20T07:04:12.070Z,24.77
2022-08-20T07:05:12.087Z,24.78
2022-08-20T07:06:15.097Z,24.71
2022-08-20T07:07:12.322Z,24.76
2022-08-20T07:08:12.179Z,24.73
2022-08-20T07:09:12.056Z,24.54
2022-08-20T07:10:12.058Z,24.48
2022-08-20T07:11:12.071Z,24.48
2022-08-20T07:12:12.331Z,24.35
2022-08-20T07:13:12.104Z,24.22
2022-08-20T07:14:12.083Z,24.19
2022-08-20T07:15:12.073Z,24.08
2022-08-20T07:16:12.148Z,24
2022-08-20T07:17:18.022Z,24.03
2022-08-20T07:18:12.037Z,23.86
2022-08-20T07:19:12.094Z,23.73
2022-08-20T07:20:12.089Z,23.68
2022-08-20T07:21:12.094Z,23.69
2022-08-20T07:22:12.329Z,23.67
2022-08-20T07:23:12.119Z,23.63
2022-08-20T07:24:12.078Z,23.6
2022-08-20T07:25:12.173Z,23.57
2022-08-20T07:26:12.172Z,23.53
2022-08-20T07:27:12.336Z,23.48
2022-08-20T07:28:15.112Z,23.46
2022-08-20T07:29:12.188Z,23.69
2022-08-20T07:30:15.265Z,23.68
2022-08-20T07:31:14.410Z,23.71
2022-08-20T07:32:12.111Z,23.68
2022-08-20T07:33:12.037Z,23.79
2022-08-20T07:34:12.080Z,23.82
2022-08-20T07:35:12.070Z,23.88
2022-08-20T07:36:12.322Z,23.97
2022-08-20T07:37:12.059Z,24.04
2022-08-20T07:38:12.097Z,24.14
2022-08-20T07:39:15.064Z,24.22
2022-08-20T07:40:12.290Z,24.32
2022-08-20T07:41:12.334Z,24.41
2022-08-20T07:42:12.334Z,24.61
2022-08-20T07:43:12.135Z,24.76
2022-08-20T07:44:12.069Z,24.9
2022-08-20T07:45:11.973Z,25
2022-08-20T07:46:12.400Z,25.02
2022-08-20T07:47:12.155Z,25.03
2022-08-20T07:48:12.121Z,25.06
2022-08-20T07:49:12.047Z,25.11
2022-08-20T07:50:15.063Z,25.16
2022-08-20T07:51:12.330Z,25.17
2022-08-20T07:52:12.061Z,25.18
2022-08-20T07:53:11.989Z,25.27
2022-08-20T07:54:12.074Z,25.33
2022-08-20T07:55:12.107Z,25.28
2022-08-20T07:56:12.735Z,25.22
2022-08-20T07:57:12.408Z,25.2
2022-08-20T07:58:12.182Z,25.19
2022-08-20T07:59:12.028Z,25.15
2022-08-20T08:00:12.124Z,25.16
2022-08-20T08:01:18.150Z,25.11
2022-08-20T08:02:12.034Z,25.19
2022-08-20T08:03:11.986Z,25.21
2022-08-20T08:04:12.083Z,25.25
2022-08-20T08:05:12.129Z,25.34
2022-08-20T08:06:12.410Z,25.51
2022-08-20T08:07:12.070Z,25.7
2022-08-20T08:08:12.082Z,25.93
2022-08-20T08:09:12.092Z,26.2
2022-08-20T08:10:12.107Z,26.39
2022-08-20T08:11:12.341Z,26.58
2022-08-20T08:12:15.417Z,26.81
2022-08-20T08:13:12.047Z,26.83
2022-08-20T08:14:11.972Z,26.81
2022-08-20T08:15:12.068Z,26.96
2022-08-20T08:16:12.404Z,27.24
2022-08-20T08:17:12.167Z,27.47
2022-08-20T08:18:12.067Z,27.67
2022-08-20T08:19:12.176Z,27.82
2022-08-20T08:20:12.083Z,27.72
2022-08-20T08:21:12.414Z,27.7
2022-08-20T08:22:12.163Z,27.71
2022-08-20T08:23:24.876Z,27.65
2022-08-20T08:24:16.603Z,27.74
2022-08-20T08:25:12.104Z,27.92
2022-08-20T08:26:16.341Z,28.17
2022-08-20T08:27:12.630Z,28.45
2022-08-20T08:28:12.173Z,28.81
2022-08-20T08:29:12.152Z,29.23
2022-08-20T08:30:12.037Z,29.62
2022-08-20T08:31:12.328Z,29.88
2022-08-20T08:32:12.151Z,30.15
2022-08-20T08:33:12.064Z,30.32
2022-08-20T08:34:15.042Z,30.26
2022-08-20T08:35:12.059Z,30.27
2022-08-20T08:36:12.403Z,30.21
2022-08-20T08:37:11.987Z,30.03
2022-08-20T08:38:14.433Z,30.07
2022-08-20T08:39:12.115Z,29.92
2022-08-20T08:40:12.969Z,29.7
2022-08-20T08:41:12.462Z,29.63
2022-08-20T08:42:14.235Z,29.48
2022-08-20T08:43:12.134Z,29.64
2022-08-20T08:44:12.072Z,29.75
2022-08-20T08:45:15.073Z,29.56
2022-08-20T08:46:12.352Z,29.26
2022-08-20T08:47:11.959Z,29.07
2022-08-20T08:48:16.458Z,29.13
2022-08-20T08:49:12.058Z,29.21
2022-08-20T08:50:12.127Z,29.22
2022-08-20T08:51:12.344Z,29.14
2022-08-20T08:52:12.057Z,29.1
2022-08-20T08:53:12.085Z,29.22
2022-08-20T08:54:12.078Z,29.3
2022-08-20T08:55:12.157Z,29.17
2022-08-20T08:56:18.025Z,28.9
2022-08-20T08:57:12.157Z,28.69
2022-08-20T08:58:16.691Z,28.59
2022-08-20T08:59:12.043Z,28.57
2022-08-20T09:00:12.055Z,28.5
2022-08-20T09:01:52.895Z,28.46
2022-08-20T09:02:12.156Z,28.24
2022-08-20T09:03:11.988Z,28.13
2022-08-20T09:04:12.069Z,27.93
2022-08-20T09:05:12.105Z,27.81
2022-08-20T09:06:12.342Z,27.86
2022-08-20T09:07:15.012Z,27.82
2022-08-20T09:08:16.371Z,27.71
2022-08-20T09:09:12.078Z,27.61
2022-08-20T09:10:12.165Z,27.58
2022-08-20T09:11:12.345Z,27.7
2022-08-20T09:12:12.057Z,27.59
2022-08-20T09:13:11.968Z,27.39
2022-08-20T09:14:12.118Z,27.4
2022-08-20T09:15:12.147Z,27.47
2022-08-20T09:16:11.981Z,27.4
2022-08-20T09:17:12.110Z,27.42
2022-08-20T09:18:14.965Z,27.45
2022-08-20T09:19:12.163Z,27.29
2022-08-20T09:20:12.044Z,27.13
2022-08-20T09:21:12.351Z,27.02
2022-08-20T09:22:12.187Z,27.01
2022-08-20T09:23:12.136Z,26.97
2022-08-20T09:24:12.060Z,27.02
2022-08-20T09:25:12.092Z,27.03
2022-08-20T09:26:12.340Z,27.09
2022-08-20T09:27:12.163Z,27.15
2022-08-20T09:28:12.072Z,27.15
2022-08-20T09:29:15.069Z,27.09
2022-08-20T09:30:12.230Z,27.13
2022-08-20T09:31:12.351Z,27.14
2022-08-20T09:32:12.193Z,27.21
2022-08-20T09:33:12.141Z,27.32
2022-08-20T09:34:12.086Z,27.38
2022-08-20T09:35:11.981Z,27.42
2022-08-20T09:36:31.346Z,27.38
2022-08-20T09:37:12.130Z,27.3
2022-08-20T09:38:12.060Z,27.28
2022-08-20T09:39:12.061Z,27.21
2022-08-20T09:40:15.118Z,27.1
2022-08-20T09:41:12.353Z,27.07
2022-08-20T09:42:12.184Z,27.03
2022-08-20T09:43:12.144Z,27.27
2022-08-20T09:44:12.071Z,27.43
2022-08-20T09:45:12.098Z,27.61
2022-08-20T09:46:12.338Z,27.88
2022-08-20T09:47:12.084Z,27.98
2022-08-20T09:48:12.095Z,28.08
2022-08-20T09:49:12.182Z,28.21
2022-08-20T09:50:12.093Z,28.15
2022-08-20T09:51:15.125Z,28.24
2022-08-20T09:52:12.180Z,28.24
2022-08-20T09:53:12.078Z,28.27
2022-08-20T09:54:12.072Z,28.27
2022-08-20T09:55:12.183Z,28.31
2022-08-20T09:56:12.421Z,28.29
2022-08-20T09:57:12.084Z,28.23
2022-08-20T09:58:12.110Z,28.21
2022-08-20T09:59:12.151Z,28.13
2022-08-20T10:00:12.103Z,28.1
2022-08-20T10:01:14.163Z,28.12
2022-08-20T10:02:15.094Z,28.1
2022-08-20T10:03:12.153Z,28.18
2022-08-20T10:04:12.103Z,28.24
2022-08-20T10:05:12.363Z,28.3
2022-08-20T10:06:12.346Z,28.29
2022-08-20T10:07:12.169Z,28.25
2022-08-20T10:08:12.184Z,28.51
2022-08-20T10:09:12.115Z,28.65
2022-08-20T10:10:12.179Z,28.93
2022-08-20T10:11:12.356Z,29.47
2022-08-20T10:12:12.129Z,29.81
2022-08-20T10:13:12.781Z,30.07
2022-08-20T10:14:12.090Z,29.91
2022-08-20T10:15:12.156Z,29.82
2022-08-20T10:16:12.419Z,30.1
2022-08-20T10:17:12.082Z,30.19
2022-08-20T10:18:15.081Z,29.86
2022-08-20T10:19:12.172Z,29.68
2022-08-20T10:20:11.967Z,29.69
2022-08-20T10:21:12.495Z,29.82
2022-08-20T10:22:12.066Z,29.93
2022-08-20T10:23:11.977Z,29.69
2022-08-20T10:24:12.037Z,29.3
2022-08-20T10:25:12.155Z,29.17
2022-08-20T10:26:12.434Z,28.94
2022-08-20T10:27:12.060Z,28.71
2022-08-20T10:28:11.994Z,28.62
2022-08-20T10:29:12.030Z,28.53
2022-08-20T10:30:12.074Z,28.35
2022-08-20T10:31:12.363Z,28.15
2022-08-20T10:32:12.180Z,28.25
2022-08-20T10:33:12.108Z,28.46
2022-08-20T10:34:15.110Z,28.64
2022-08-20T10:35:12.345Z,28.82
2022-08-20T10:36:12.098Z,28.88
2022-08-20T10:37:12.063Z,28.71
2022-08-20T10:38:11.967Z,28.53
2022-08-20T10:39:12.084Z,28.44
2022-08-20T10:40:12.443Z,28.63
2022-08-20T10:41:11.953Z,28.95
2022-08-20T10:42:12.164Z,29.24
2022-08-20T10:43:11.943Z,29.43
2022-08-20T10:44:12.059Z,29.79
2022-08-20T10:45:18.019Z,29.95
2022-08-20T10:46:12.347Z,30.01
2022-08-20T10:47:12.157Z,30.01
2022-08-20T10:48:12.048Z,30.1
2022-08-20T10:49:12.182Z,30.11
2022-08-20T10:50:12.432Z,29.92
2022-08-20T10:51:12.071Z,29.65
2022-08-20T10:52:12.075Z,29.75
2022-08-20T10:53:12.153Z,29.67
2022-08-20T10:54:12.483Z,29.51
2022-08-20T10:55:12.347Z,29.9
2022-08-20T10:56:15.741Z,30
2022-08-20T10:57:12.042Z,30.32
2022-08-20T10:58:12.072Z,30.76
2022-08-20T10:59:12.119Z,30.81
2022-08-20T11:00:12.447Z,31.02
2022-08-20T11:01:12.373Z,31.17
2022-08-20T11:02:15.025Z,31.11
2022-08-20T11:03:12.051Z,31.03
2022-08-20T11:04:11.970Z,30.98
2022-08-20T11:05:12.195Z,31.04
2022-08-20T11:06:12.159Z,30.89
2022-08-20T11:07:11.958Z,30.9
2022-08-20T11:08:12.076Z,30.84
2022-08-20T11:09:12.081Z,30.78
2022-08-20T11:10:13.931Z,31.05
2022-08-20T11:11:12.125Z,31.22
2022-08-20T11:12:12.065Z,31.32
2022-08-20T11:13:15.078Z,31.16
2022-08-20T11:14:12.178Z,31.06
2022-08-20T11:15:12.346Z,31.08
2022-08-20T11:16:12.044Z,31.13
2022-08-20T11:17:12.085Z,31.1
2022-08-20T11:18:12.087Z,31.11
2022-08-20T11:19:12.091Z,31.28
2022-08-20T11:20:12.416Z,31.39
2022-08-20T11:21:12.143Z,31.27
2022-08-20T11:22:12.070Z,31.09
2022-08-20T11:23:12.047Z,30.78
2022-08-20T11:24:15.070Z,30.53
2022-08-20T11:25:12.353Z,30.39
2022-08-20T11:26:12.129Z,30.05
2022-08-20T11:27:12.041Z,29.54
2022-08-20T11:28:12.105Z,29.11
2022-08-20T11:29:12.144Z,28.97
2022-08-20T11:30:12.341Z,29.03
2022-08-20T11:31:12.413Z,28.97
2022-08-20T11:32:12.151Z,28.91
2022-08-20T11:33:12.185Z,29
2022-08-20T11:34:12.755Z,29.26
2022-08-20T11:35:41.677Z,29.59
2022-08-20T11:36:12.151Z,29.7
2022-08-20T11:37:12.089Z,29.73
2022-08-20T11:38:12.196Z,29.75
2022-08-20T11:39:12.150Z,29.69
2022-08-20T11:40:12.529Z,29.48
2022-08-20T11:41:12.067Z,29.39
2022-08-20T11:42:12.092Z,29.57
2022-08-20T11:43:15.240Z,29.82
2022-08-20T11:44:20.176Z,30.1
2022-08-20T11:45:12.343Z,30.19
2022-08-20T11:46:18.013Z,30.27
2022-08-20T11:47:12.062Z,30.58
2022-08-20T11:48:11.965Z,30.68
2022-08-20T11:49:11.952Z,30.32
2022-08-20T11:50:12.343Z,29.74
2022-08-20T11:51:12.047Z,29.52
2022-08-20T11:52:12.057Z,29.84
2022-08-20T11:53:12.042Z,30.1
2022-08-20T11:54:12.063Z,30.63
2022-08-20T11:55:12.420Z,31.18
2022-08-20T11:56:13.441Z,31.51
2022-08-20T11:57:15.118Z,31.65
2022-08-20T11:58:12.162Z,31.68
2022-08-20T11:59:12.139Z,31.67
2022-08-20T12:00:12.426Z,31.69
2022-08-20T12:01:12.345Z,31.51
2022-08-20T12:02:12.611Z,31.45
2022-08-20T12:03:12.258Z,31.45
2022-08-20T12:04:12.071Z,31.49
2022-08-20T12:05:12.430Z,31.52
2022-08-20T12:06:12.144Z,31.64
2022-08-20T12:07:12.086Z,31.74
2022-08-20T12:08:25.500Z,31.66
2022-08-20T12:09:12.152Z,31.54
2022-08-20T12:10:12.418Z,31.36
2022-08-20T12:11:12.157Z,31.2
2022-08-20T12:12:12.152Z,31.03
2022-08-20T12:13:11.986Z,31.1
2022-08-20T12:14:12.109Z,31.24
2022-08-20T12:15:12.418Z,31.28
2022-08-20T12:16:12.353Z,31.34
2022-08-20T12:17:12.188Z,31.19
2022-08-20T12:18:12.191Z,30.77
2022-08-20T12:19:14.988Z,30.41
2022-08-20T12:20:12.361Z,30.2
2022-08-20T12:21:12.074Z,30.18
2022-08-20T12:22:23.104Z,30.13
2022-08-20T12:23:12.154Z,29.93
2022-08-20T12:24:12.046Z,29.85
2022-08-20T12:25:12.353Z,29.87
2022-08-20T12:26:12.064Z,29.88
2022-08-20T12:27:12.184Z,29.82
2022-08-20T12:28:12.175Z,29.7
2022-08-20T12:29:12.125Z,29.55
2022-08-20T12:30:17.992Z,29.47
2022-08-20T12:31:12.163Z,29.46
2022-08-20T12:32:12.061Z,29.44
2022-08-20T12:33:11.967Z,29.36
2022-08-20T12:34:12.060Z,29.35
2022-08-20T12:35:12.136Z,29.35
2022-08-20T12:36:12.102Z,29.09
2022-08-20T12:37:15.397Z,29.02
2022-08-20T12:38:11.971Z,29.13
2022-08-20T12:39:11.978Z,29.25
2022-08-20T12:40:12.394Z,29.32
2022-08-20T12:41:15.292Z,29.32
2022-08-20T12:42:12.104Z,29.28
2022-08-20T12:43:12.086Z,29.3
2022-08-20T12:44:13.352Z,29.31
2022-08-20T12:45:12.417Z,29.5
2022-08-20T12:46:12.415Z,29.84
2022-08-20T12:47:12.064Z,30.17
2022-08-20T12:48:11.977Z,30.47
2022-08-20T12:49:11.966Z,30.77
2022-08-20T12:50:12.423Z,31.01
2022-08-20T12:51:12.054Z,31.26
2022-08-20T12:52:14.947Z,31.48
2022-08-20T12:53:12.136Z,31.37
2022-08-20T12:54:11.976Z,30.99
2022-08-20T12:55:12.413Z,30.59